sensor_id;sensor_type;location;lat;lon;timestamp;temperature;humidity
14061;DHT22;7105;43.616;1.434;2023-02-23T00:01:21;11.30;99.90
14061;DHT22;7105;43.616;1.434;2023-02-23T00:03:48;11.30;99.90
14061;DHT22;7105;43.616;1.434;2023-02-23T00:06:15;11.20;99.90
14061;DHT22;7105;43.616;1.434;2023-02-23T00:08:42;11.20;99.90
14061;DHT22;7105;43.616;1.434;2023-02-23T00:11:10;11.20;99.90
14061;DHT22;7105;43.616;1.434;2023-02-23T00:13:40;11.20;99.90
14061;DHT22;7105;43.616;1.434;2023-02-23T00:16:11;11.10;99.90
14061;DHT22;7105;43.616;1.434;2023-02-23T00:18:41;11.10;99.90
14061;DHT22;7105;43.616;1.434;2023-02-23T00:21:20;11.10;99.90
14061;DHT22;7105;43.616;1.434;2023-02-23T00:23:54;11.20;99.90
14061;DHT22;7105;43.616;1.434;2023-02-23T00:26:23;11.10;99.90
14061;DHT22;7105;43.616;1.434;2023-02-23T00:28:51;11.10;99.90
14061;DHT22;7105;43.616;1.434;2023-02-23T00:31:17;11.10;99.90
14061;DHT22;7105;43.616;1.434;2023-02-23T00:33:43;11.10;99.90
14061;DHT22;7105;43.616;1.434;2023-02-23T00:36:12;11.00;99.90
14061;DHT22;7105;43.616;1.434;2023-02-23T00:38:39;11.00;99.90
14061;DHT22;7105;43.616;1.434;2023-02-23T00:41:10;11.10;99.90
14061;DHT22;7105;43.616;1.434;2023-02-23T00:43:38;11.10;99.90
14061;DHT22;7105;43.616;1.434;2023-02-23T00:46:12;11.00;99.90
14061;DHT22;7105;43.616;1.434;2023-02-23T00:48:40;11.00;99.90
14061;DHT22;7105;43.616;1.434;2023-02-23T00:51:06;11.00;99.90
14061;DHT22;7105;43.616;1.434;2023-02-23T00:53:32;11.00;99.90
14061;DHT22;7105;43.616;1.434;2023-02-23T00:55:57;11.00;99.90
14061;DHT22;7105;43.616;1.434;2023-02-23T00:58:24;11.00;99.90
14061;DHT22;7105;43.616;1.434;2023-02-23T01:00:51;11.00;99.90
14061;DHT22;7105;43.616;1.434;2023-02-23T01:03:17;10.90;99.90
14061;DHT22;7105;43.616;1.434;2023-02-23T01:05:43;10.90;99.90
14061;DHT22;7105;43.616;1.434;2023-02-23T01:08:11;10.90;99.90
14061;DHT22;7105;43.616;1.434;2023-02-23T01:10:41;10.90;99.90
14061;DHT22;7105;43.616;1.434;2023-02-23T01:13:08;10.90;99.90
14061;DHT22;7105;43.616;1.434;2023-02-23T01:15:39;10.90;99.90
14061;DHT22;7105;43.616;1.434;2023-02-23T01:18:07;10.90;99.90
14061;DHT22;7105;43.616;1.434;2023-02-23T01:20:33;10.80;99.90
14061;DHT22;7105;43.616;1.434;2023-02-23T01:23:00;10.80;99.90
14061;DHT22;7105;43.616;1.434;2023-02-23T01:25:27;10.80;99.90
14061;DHT22;7105;43.616;1.434;2023-02-23T01:27:54;10.80;99.90
14061;DHT22;7105;43.616;1.434;2023-02-23T01:30:20;10.90;99.90
14061;DHT22;7105;43.616;1.434;2023-02-23T01:32:46;10.80;99.90
14061;DHT22;7105;43.616;1.434;2023-02-23T01:35:12;10.90;99.90
14061;DHT22;7105;43.616;1.434;2023-02-23T01:37:40;10.90;99.90
14061;DHT22;7105;43.616;1.434;2023-02-23T01:40:27;10.90;99.90
14061;DHT22;7105;43.616;1.434;2023-02-23T01:45:35;10.90;99.90
14061;DHT22;7105;43.616;1.434;2023-02-23T01:48:06;10.80;99.90
14061;DHT22;7105;43.616;1.434;2023-02-23T01:51:04;10.80;99.90
14061;DHT22;7105;43.616;1.434;2023-02-23T01:53:35;10.60;99.90
14061;DHT22;7105;43.616;1.434;2023-02-23T01:56:10;10.50;99.90
14061;DHT22;7105;43.616;1.434;2023-02-23T01:58:40;10.50;99.90
14061;DHT22;7105;43.616;1.434;2023-02-23T02:01:08;10.40;99.90
14061;DHT22;7105;43.616;1.434;2023-02-23T02:03:41;10.30;99.90
14061;DHT22;7105;43.616;1.434;2023-02-23T02:06:11;10.30;99.90
14061;DHT22;7105;43.616;1.434;2023-02-23T02:08:40;10.20;99.90
14061;DHT22;7105;43.616;1.434;2023-02-23T02:11:12;10.20;99.90
14061;DHT22;7105;43.616;1.434;2023-02-23T02:39:29;10.30;99.90
14061;DHT22;7105;43.616;1.434;2023-02-23T02:41:51;10.20;99.90
14061;DHT22;7105;43.616;1.434;2023-02-23T02:47:06;10.20;99.90
14061;DHT22;7105;43.616;1.434;2023-02-23T02:49:56;10.10;99.90
14061;DHT22;7105;43.616;1.434;2023-02-23T02:52:38;10.10;99.90
14061;DHT22;7105;43.616;1.434;2023-02-23T02:55:16;10.20;99.90
14061;DHT22;7105;43.616;1.434;2023-02-23T02:57:45;10.30;99.90
14061;DHT22;7105;43.616;1.434;2023-02-23T03:00:38;10.20;99.90
14061;DHT22;7105;43.616;1.434;2023-02-23T03:06:20;10.20;99.90
14061;DHT22;7105;43.616;1.434;2023-02-23T03:09:43;10.20;99.90
14061;DHT22;7105;43.616;1.434;2023-02-23T03:12:42;10.10;99.90
14061;DHT22;7105;43.616;1.434;2023-02-23T03:22:10;10.00;99.90
14061;DHT22;7105;43.616;1.434;2023-02-23T03:27:50;9.80;99.90
14061;DHT22;7105;43.616;1.434;2023-02-23T03:30:41;9.70;99.90
14061;DHT22;7105;43.616;1.434;2023-02-23T03:36:51;9.50;99.90
14061;DHT22;7105;43.616;1.434;2023-02-23T03:39:44;9.50;99.90
14061;DHT22;7105;43.616;1.434;2023-02-23T03:42:33;9.40;99.90
14061;DHT22;7105;43.616;1.434;2023-02-23T03:45:22;9.50;99.90
14061;DHT22;7105;43.616;1.434;2023-02-23T03:48:09;9.50;99.90
14061;DHT22;7105;43.616;1.434;2023-02-23T03:50:57;9.40;99.90
14061;DHT22;7105;43.616;1.434;2023-02-23T03:53:48;9.40;99.90
14061;DHT22;7105;43.616;1.434;2023-02-23T03:56:35;9.40;99.90
14061;DHT22;7105;43.616;1.434;2023-02-23T03:59:31;9.40;99.90
14061;DHT22;7105;43.616;1.434;2023-02-23T04:02:18;9.50;99.90
14061;DHT22;7105;43.616;1.434;2023-02-23T04:05:06;9.50;99.90
14061;DHT22;7105;43.616;1.434;2023-02-23T04:07:53;9.50;99.90
14061;DHT22;7105;43.616;1.434;2023-02-23T04:10:47;9.50;99.90
14061;DHT22;7105;43.616;1.434;2023-02-23T04:13:33;9.40;99.90
14061;DHT22;7105;43.616;1.434;2023-02-23T04:16:06;9.20;99.90
14061;DHT22;7105;43.616;1.434;2023-02-23T04:18:35;9.00;99.90
14061;DHT22;7105;43.616;1.434;2023-02-23T04:21:01;8.80;99.90
14061;DHT22;7105;43.616;1.434;2023-02-23T04:23:27;8.60;99.90
14061;DHT22;7105;43.616;1.434;2023-02-23T04:25:54;8.50;99.90
14061;DHT22;7105;43.616;1.434;2023-02-23T04:28:21;8.50;99.90
14061;DHT22;7105;43.616;1.434;2023-02-23T04:30:48;8.60;99.90
14061;DHT22;7105;43.616;1.434;2023-02-23T04:33:14;8.50;99.90
14061;DHT22;7105;43.616;1.434;2023-02-23T04:35:40;8.60;99.90
14061;DHT22;7105;43.616;1.434;2023-02-23T04:38:06;8.60;99.90
14061;DHT22;7105;43.616;1.434;2023-02-23T04:40:32;8.60;99.90
14061;DHT22;7105;43.616;1.434;2023-02-23T04:42:57;8.60;99.90
14061;DHT22;7105;43.616;1.434;2023-02-23T04:45:24;8.60;99.90
14061;DHT22;7105;43.616;1.434;2023-02-23T04:47:50;8.50;99.90
14061;DHT22;7105;43.616;1.434;2023-02-23T04:50:16;8.50;99.90
14061;DHT22;7105;43.616;1.434;2023-02-23T04:52:42;8.50;99.90
14061;DHT22;7105;43.616;1.434;2023-02-23T04:55:22;8.50;99.90
14061;DHT22;7105;43.616;1.434;2023-02-23T04:57:48;8.50;99.90
14061;DHT22;7105;43.616;1.434;2023-02-23T05:00:14;8.50;99.90
14061;DHT22;7105;43.616;1.434;2023-02-23T05:02:40;8.70;99.90
14061;DHT22;7105;43.616;1.434;2023-02-23T05:05:07;8.70;99.90
14061;DHT22;7105;43.616;1.434;2023-02-23T05:07:34;8.50;99.90
14061;DHT22;7105;43.616;1.434;2023-02-23T05:10:00;8.50;99.90
14061;DHT22;7105;43.616;1.434;2023-02-23T05:12:25;8.60;99.90
14061;DHT22;7105;43.616;1.434;2023-02-23T05:14:51;8.60;99.90
14061;DHT22;7105;43.616;1.434;2023-02-23T05:17:17;8.50;99.90
14061;DHT22;7105;43.616;1.434;2023-02-23T05:19:42;8.50;99.90
14061;DHT22;7105;43.616;1.434;2023-02-23T05:22:08;8.50;99.90
14061;DHT22;7105;43.616;1.434;2023-02-23T05:24:40;8.40;99.90
14061;DHT22;7105;43.616;1.434;2023-02-23T05:27:10;8.40;99.90
14061;DHT22;7105;43.616;1.434;2023-02-23T05:29:38;8.50;99.90
14061;DHT22;7105;43.616;1.434;2023-02-23T05:32:04;8.40;99.90
14061;DHT22;7105;43.616;1.434;2023-02-23T05:34:29;8.50;99.90
14061;DHT22;7105;43.616;1.434;2023-02-23T05:36:55;8.60;99.90
14061;DHT22;7105;43.616;1.434;2023-02-23T05:39:21;8.70;99.90
14061;DHT22;7105;43.616;1.434;2023-02-23T05:41:46;8.80;99.90
14061;DHT22;7105;43.616;1.434;2023-02-23T05:44:12;8.70;99.90
14061;DHT22;7105;43.616;1.434;2023-02-23T05:46:38;8.70;99.90
14061;DHT22;7105;43.616;1.434;2023-02-23T05:49:04;8.60;99.90
14061;DHT22;7105;43.616;1.434;2023-02-23T05:51:32;8.60;99.90
14061;DHT22;7105;43.616;1.434;2023-02-23T05:53:58;8.50;99.90
14061;DHT22;7105;43.616;1.434;2023-02-23T05:56:24;8.60;99.90
14061;DHT22;7105;43.616;1.434;2023-02-23T05:58:52;8.70;99.90
14061;DHT22;7105;43.616;1.434;2023-02-23T06:01:19;8.80;99.90
14061;DHT22;7105;43.616;1.434;2023-02-23T06:03:46;8.80;99.90
14061;DHT22;7105;43.616;1.434;2023-02-23T06:06:12;8.60;99.90
14061;DHT22;7105;43.616;1.434;2023-02-23T06:08:38;8.60;99.90
14061;DHT22;7105;43.616;1.434;2023-02-23T06:11:04;8.60;99.90
14061;DHT22;7105;43.616;1.434;2023-02-23T06:13:30;8.70;99.90
14061;DHT22;7105;43.616;1.434;2023-02-23T06:15:56;8.70;99.90
14061;DHT22;7105;43.616;1.434;2023-02-23T06:18:24;8.80;99.90
14061;DHT22;7105;43.616;1.434;2023-02-23T06:20:50;8.80;99.90
14061;DHT22;7105;43.616;1.434;2023-02-23T06:23:16;8.70;99.90
14061;DHT22;7105;43.616;1.434;2023-02-23T06:25:45;8.40;99.90
14061;DHT22;7105;43.616;1.434;2023-02-23T06:28:12;8.40;99.90
14061;DHT22;7105;43.616;1.434;2023-02-23T06:30:38;8.30;99.90
14061;DHT22;7105;43.616;1.434;2023-02-23T06:33:04;8.30;99.90
14061;DHT22;7105;43.616;1.434;2023-02-23T06:35:31;8.10;99.90
14061;DHT22;7105;43.616;1.434;2023-02-23T06:37:59;8.00;99.90
14061;DHT22;7105;43.616;1.434;2023-02-23T06:40:24;8.20;99.90
14061;DHT22;7105;43.616;1.434;2023-02-23T06:42:50;8.20;99.90
14061;DHT22;7105;43.616;1.434;2023-02-23T06:45:16;8.20;99.90
14061;DHT22;7105;43.616;1.434;2023-02-23T06:47:44;8.30;99.90
14061;DHT22;7105;43.616;1.434;2023-02-23T06:50:10;8.40;99.90
14061;DHT22;7105;43.616;1.434;2023-02-23T06:52:36;8.40;99.90
14061;DHT22;7105;43.616;1.434;2023-02-23T06:55:01;8.40;99.90
14061;DHT22;7105;43.616;1.434;2023-02-23T06:57:27;8.50;99.90
14061;DHT22;7105;43.616;1.434;2023-02-23T06:59:53;8.60;99.90
14061;DHT22;7105;43.616;1.434;2023-02-23T07:02:19;8.70;99.90
14061;DHT22;7105;43.616;1.434;2023-02-23T07:04:44;8.70;99.90
14061;DHT22;7105;43.616;1.434;2023-02-23T07:07:10;8.70;99.90
14061;DHT22;7105;43.616;1.434;2023-02-23T07:09:41;8.80;99.90
14061;DHT22;7105;43.616;1.434;2023-02-23T07:12:08;8.80;99.90
14061;DHT22;7105;43.616;1.434;2023-02-23T07:14:34;9.00;99.90
14061;DHT22;7105;43.616;1.434;2023-02-23T07:16:59;8.90;99.90
14061;DHT22;7105;43.616;1.434;2023-02-23T07:19:25;9.10;99.90
14061;DHT22;7105;43.616;1.434;2023-02-23T07:21:52;9.20;99.90
14061;DHT22;7105;43.616;1.434;2023-02-23T07:24:18;9.30;99.90
14061;DHT22;7105;43.616;1.434;2023-02-23T07:26:44;9.30;99.90
14061;DHT22;7105;43.616;1.434;2023-02-23T07:29:11;9.50;99.90
14061;DHT22;7105;43.616;1.434;2023-02-23T07:31:38;9.50;99.90
14061;DHT22;7105;43.616;1.434;2023-02-23T07:34:03;9.40;99.90
14061;DHT22;7105;43.616;1.434;2023-02-23T07:36:29;9.60;99.90
14061;DHT22;7105;43.616;1.434;2023-02-23T07:38:55;9.60;99.90
14061;DHT22;7105;43.616;1.434;2023-02-23T07:41:21;9.50;99.90
14061;DHT22;7105;43.616;1.434;2023-02-23T07:43:47;9.60;99.90
14061;DHT22;7105;43.616;1.434;2023-02-23T07:46:14;9.50;99.90
14061;DHT22;7105;43.616;1.434;2023-02-23T07:48:41;9.70;99.90
14061;DHT22;7105;43.616;1.434;2023-02-23T07:51:11;9.70;99.90
14061;DHT22;7105;43.616;1.434;2023-02-23T07:53:39;9.70;99.90
14061;DHT22;7105;43.616;1.434;2023-02-23T07:56:06;9.80;99.90
14061;DHT22;7105;43.616;1.434;2023-02-23T07:58:36;9.90;99.90
14061;DHT22;7105;43.616;1.434;2023-02-23T08:01:03;9.90;99.90
14061;DHT22;7105;43.616;1.434;2023-02-23T08:03:28;9.90;99.90
14061;DHT22;7105;43.616;1.434;2023-02-23T08:05:55;10.00;99.90
14061;DHT22;7105;43.616;1.434;2023-02-23T08:08:20;10.00;99.90
14061;DHT22;7105;43.616;1.434;2023-02-23T08:10:46;10.00;99.90
14061;DHT22;7105;43.616;1.434;2023-02-23T08:13:13;10.00;99.90
14061;DHT22;7105;43.616;1.434;2023-02-23T08:15:40;10.00;99.90
14061;DHT22;7105;43.616;1.434;2023-02-23T08:18:06;10.40;99.90
14061;DHT22;7105;43.616;1.434;2023-02-23T08:20:32;10.30;99.90
14061;DHT22;7105;43.616;1.434;2023-02-23T08:22:57;10.20;99.90
14061;DHT22;7105;43.616;1.434;2023-02-23T08:25:24;10.30;99.90
14061;DHT22;7105;43.616;1.434;2023-02-23T08:27:50;10.30;99.90
14061;DHT22;7105;43.616;1.434;2023-02-23T08:30:20;10.30;99.90
14061;DHT22;7105;43.616;1.434;2023-02-23T08:32:47;10.30;99.90
14061;DHT22;7105;43.616;1.434;2023-02-23T08:35:13;10.40;99.90
14061;DHT22;7105;43.616;1.434;2023-02-23T08:37:39;10.20;99.90
14061;DHT22;7105;43.616;1.434;2023-02-23T08:40:06;10.20;99.90
14061;DHT22;7105;43.616;1.434;2023-02-23T08:42:32;10.20;99.90
14061;DHT22;7105;43.616;1.434;2023-02-23T08:44:58;10.10;99.90
14061;DHT22;7105;43.616;1.434;2023-02-23T08:47:26;10.10;99.90
14061;DHT22;7105;43.616;1.434;2023-02-23T08:49:52;10.10;99.90
14061;DHT22;7105;43.616;1.434;2023-02-23T08:52:21;10.00;99.90
14061;DHT22;7105;43.616;1.434;2023-02-23T08:54:48;10.00;99.90
14061;DHT22;7105;43.616;1.434;2023-02-23T08:57:14;10.00;99.90
14061;DHT22;7105;43.616;1.434;2023-02-23T08:59:39;10.00;99.90
14061;DHT22;7105;43.616;1.434;2023-02-23T09:02:06;9.90;99.90
14061;DHT22;7105;43.616;1.434;2023-02-23T09:04:35;10.00;99.90
14061;DHT22;7105;43.616;1.434;2023-02-23T09:07:02;10.00;99.90
14061;DHT22;7105;43.616;1.434;2023-02-23T09:09:28;10.00;99.90
14061;DHT22;7105;43.616;1.434;2023-02-23T09:11:54;9.90;99.90
14061;DHT22;7105;43.616;1.434;2023-02-23T09:14:20;9.90;99.90
14061;DHT22;7105;43.616;1.434;2023-02-23T09:16:46;9.90;99.90
14061;DHT22;7105;43.616;1.434;2023-02-23T09:19:12;9.90;99.90
14061;DHT22;7105;43.616;1.434;2023-02-23T09:21:38;10.00;99.90
14061;DHT22;7105;43.616;1.434;2023-02-23T09:24:04;10.00;99.90
14061;DHT22;7105;43.616;1.434;2023-02-23T09:26:31;10.00;99.90
14061;DHT22;7105;43.616;1.434;2023-02-23T09:28:59;10.10;99.90
14061;DHT22;7105;43.616;1.434;2023-02-23T09:31:25;10.10;99.90
14061;DHT22;7105;43.616;1.434;2023-02-23T09:33:53;10.10;99.90
14061;DHT22;7105;43.616;1.434;2023-02-23T09:36:23;10.10;99.90
14061;DHT22;7105;43.616;1.434;2023-02-23T09:38:51;10.00;99.90
14061;DHT22;7105;43.616;1.434;2023-02-23T09:44:09;9.70;99.90
14061;DHT22;7105;43.616;1.434;2023-02-23T09:49:29;9.50;99.90
14061;DHT22;7105;43.616;1.434;2023-02-23T09:51:59;9.30;99.90
14061;DHT22;7105;43.616;1.434;2023-02-23T09:54:28;9.20;99.90
14061;DHT22;7105;43.616;1.434;2023-02-23T09:56:54;9.20;99.90
14061;DHT22;7105;43.616;1.434;2023-02-23T09:59:23;9.20;99.90
14061;DHT22;7105;43.616;1.434;2023-02-23T10:02:20;9.10;99.90
14061;DHT22;7105;43.616;1.434;2023-02-23T10:04:50;9.20;99.90
14061;DHT22;7105;43.616;1.434;2023-02-23T10:07:45;9.00;99.90
14061;DHT22;7105;43.616;1.434;2023-02-23T10:18:59;8.50;99.90
14061;DHT22;7105;43.616;1.434;2023-02-23T10:21:38;8.50;99.90
14061;DHT22;7105;43.616;1.434;2023-02-23T10:26:41;8.20;99.90
14061;DHT22;7105;43.616;1.434;2023-02-23T10:29:38;8.30;99.90
14061;DHT22;7105;43.616;1.434;2023-02-23T10:34:50;8.10;99.90
14061;DHT22;7105;43.616;1.434;2023-02-23T10:37:18;8.10;99.90
14061;DHT22;7105;43.616;1.434;2023-02-23T10:39:44;8.10;99.90
14061;DHT22;7105;43.616;1.434;2023-02-23T10:42:22;8.20;99.90
14061;DHT22;7105;43.616;1.434;2023-02-23T10:44:48;8.10;99.90
14061;DHT22;7105;43.616;1.434;2023-02-23T10:47:23;8.20;99.90
14061;DHT22;7105;43.616;1.434;2023-02-23T10:49:53;8.30;99.90
14061;DHT22;7105;43.616;1.434;2023-02-23T10:54:50;8.10;99.90
14061;DHT22;7105;43.616;1.434;2023-02-23T10:57:24;8.10;99.90
14061;DHT22;7105;43.616;1.434;2023-02-23T11:02:41;8.20;99.90
14061;DHT22;7105;43.616;1.434;2023-02-23T11:05:28;8.20;99.90
14061;DHT22;7105;43.616;1.434;2023-02-23T11:08:19;8.30;99.90
14061;DHT22;7105;43.616;1.434;2023-02-23T11:11:00;8.30;99.90
14061;DHT22;7105;43.616;1.434;2023-02-23T11:13:37;8.30;99.90
14061;DHT22;7105;43.616;1.434;2023-02-23T11:16:04;8.10;99.90
14061;DHT22;7105;43.616;1.434;2023-02-23T11:18:31;8.10;99.90
14061;DHT22;7105;43.616;1.434;2023-02-23T11:20:58;8.10;99.90
14061;DHT22;7105;43.616;1.434;2023-02-23T11:23:30;8.10;99.90
14061;DHT22;7105;43.616;1.434;2023-02-23T11:26:00;8.20;99.90
14061;DHT22;7105;43.616;1.434;2023-02-23T11:28:40;7.90;99.90
14061;DHT22;7105;43.616;1.434;2023-02-23T11:31:15;8.10;99.90
14061;DHT22;7105;43.616;1.434;2023-02-23T11:33:41;8.10;99.90
14061;DHT22;7105;43.616;1.434;2023-02-23T11:41:41;8.10;99.90
14061;DHT22;7105;43.616;1.434;2023-02-23T11:44:21;8.10;99.90
14061;DHT22;7105;43.616;1.434;2023-02-23T11:46:47;8.00;99.90
14061;DHT22;7105;43.616;1.434;2023-02-23T11:49:19;7.90;99.90
14061;DHT22;7105;43.616;1.434;2023-02-23T11:51:47;7.80;99.90
14061;DHT22;7105;43.616;1.434;2023-02-23T11:54:34;7.90;99.90
14061;DHT22;7105;43.616;1.434;2023-02-23T11:57:00;8.00;99.90
14061;DHT22;7105;43.616;1.434;2023-02-23T11:59:31;7.80;99.90
14061;DHT22;7105;43.616;1.434;2023-02-23T12:04:36;7.70;99.90
14061;DHT22;7105;43.616;1.434;2023-02-23T12:10:06;7.80;99.90
14061;DHT22;7105;43.616;1.434;2023-02-23T12:17:56;7.90;99.90
14061;DHT22;7105;43.616;1.434;2023-02-23T12:20:28;8.00;99.90
14061;DHT22;7105;43.616;1.434;2023-02-23T12:23:02;8.00;99.90
14061;DHT22;7105;43.616;1.434;2023-02-23T12:28:35;8.00;99.90
14061;DHT22;7105;43.616;1.434;2023-02-23T12:33:56;8.00;99.90
14061;DHT22;7105;43.616;1.434;2023-02-23T12:36:29;7.90;99.90
14061;DHT22;7105;43.616;1.434;2023-02-23T12:39:37;7.80;99.90
14061;DHT22;7105;43.616;1.434;2023-02-23T12:42:06;7.90;99.90
14061;DHT22;7105;43.616;1.434;2023-02-23T12:44:54;7.70;99.90
14061;DHT22;7105;43.616;1.434;2023-02-23T12:47:44;7.50;99.90
14061;DHT22;7105;43.616;1.434;2023-02-23T12:50:24;7.30;99.90
14061;DHT22;7105;43.616;1.434;2023-02-23T12:53:04;7.30;99.90
14061;DHT22;7105;43.616;1.434;2023-02-23T12:55:38;7.40;99.90
14061;DHT22;7105;43.616;1.434;2023-02-23T12:58:43;7.40;99.90
14061;DHT22;7105;43.616;1.434;2023-02-23T13:01:35;7.50;99.90
14061;DHT22;7105;43.616;1.434;2023-02-23T13:06:48;7.60;99.90
14061;DHT22;7105;43.616;1.434;2023-02-23T13:12:24;7.90;99.90
14061;DHT22;7105;43.616;1.434;2023-02-23T13:15:14;7.70;99.90
14061;DHT22;7105;43.616;1.434;2023-02-23T13:28:55;7.70;99.90
14061;DHT22;7105;43.616;1.434;2023-02-23T13:31:28;7.60;99.90
14061;DHT22;7105;43.616;1.434;2023-02-23T13:33:57;8.00;99.90
14061;DHT22;7105;43.616;1.434;2023-02-23T13:36:26;8.00;99.90
14061;DHT22;7105;43.616;1.434;2023-02-23T13:44:28;8.00;99.90
14061;DHT22;7105;43.616;1.434;2023-02-23T13:53:00;7.80;99.90
14061;DHT22;7105;43.616;1.434;2023-02-23T13:57:54;8.00;99.90
14061;DHT22;7105;43.616;1.434;2023-02-23T14:00:22;8.20;99.90
14061;DHT22;7105;43.616;1.434;2023-02-23T14:02:49;8.20;99.90
14061;DHT22;7105;43.616;1.434;2023-02-23T14:07:50;8.30;99.90
14061;DHT22;7105;43.616;1.434;2023-02-23T14:13:04;8.20;99.90
14061;DHT22;7105;43.616;1.434;2023-02-23T14:17:59;8.20;99.90
14061;DHT22;7105;43.616;1.434;2023-02-23T14:23:14;8.40;99.90
14061;DHT22;7105;43.616;1.434;2023-02-23T14:25:44;8.50;99.90
14061;DHT22;7105;43.616;1.434;2023-02-23T14:28:47;8.40;99.90
14061;DHT22;7105;43.616;1.434;2023-02-23T14:31:34;8.20;99.90
14061;DHT22;7105;43.616;1.434;2023-02-23T14:34:08;8.30;99.90
14061;DHT22;7105;43.616;1.434;2023-02-23T14:36:41;8.30;99.90
14061;DHT22;7105;43.616;1.434;2023-02-23T14:39:15;8.20;99.90
14061;DHT22;7105;43.616;1.434;2023-02-23T14:41:58;8.30;99.90
14061;DHT22;7105;43.616;1.434;2023-02-23T14:44:29;8.20;99.90
14061;DHT22;7105;43.616;1.434;2023-02-23T14:47:00;7.90;99.90
14061;DHT22;7105;43.616;1.434;2023-02-23T14:49:30;7.90;99.90
14061;DHT22;7105;43.616;1.434;2023-02-23T14:52:03;7.90;99.90
14061;DHT22;7105;43.616;1.434;2023-02-23T14:54:47;7.90;99.90
14061;DHT22;7105;43.616;1.434;2023-02-23T14:57:17;8.10;99.90
14061;DHT22;7105;43.616;1.434;2023-02-23T14:59:43;8.10;99.90
14061;DHT22;7105;43.616;1.434;2023-02-23T15:02:16;7.90;99.90
14061;DHT22;7105;43.616;1.434;2023-02-23T15:04:41;7.80;99.90
14061;DHT22;7105;43.616;1.434;2023-02-23T15:07:15;7.80;99.90
14061;DHT22;7105;43.616;1.434;2023-02-23T15:09:44;7.90;99.90
14061;DHT22;7105;43.616;1.434;2023-02-23T15:12:26;7.80;99.90
14061;DHT22;7105;43.616;1.434;2023-02-23T15:14:57;7.70;99.90
14061;DHT22;7105;43.616;1.434;2023-02-23T15:17:26;7.60;99.90
14061;DHT22;7105;43.616;1.434;2023-02-23T15:20:03;7.70;99.90
14061;DHT22;7105;43.616;1.434;2023-02-23T15:22:33;7.60;99.90
14061;DHT22;7105;43.616;1.434;2023-02-23T15:25:02;7.70;99.90
14061;DHT22;7105;43.616;1.434;2023-02-23T15:27:39;7.70;99.90
14061;DHT22;7105;43.616;1.434;2023-02-23T15:32:42;7.60;99.90
14061;DHT22;7105;43.616;1.434;2023-02-23T15:35:10;7.60;99.90
14061;DHT22;7105;43.616;1.434;2023-02-23T15:37:42;7.50;99.90
14061;DHT22;7105;43.616;1.434;2023-02-23T15:40:12;7.60;99.90
14061;DHT22;7105;43.616;1.434;2023-02-23T15:42:44;7.40;99.90
14061;DHT22;7105;43.616;1.434;2023-02-23T15:48:03;7.10;99.90
14061;DHT22;7105;43.616;1.434;2023-02-23T15:50:38;6.80;99.90
14061;DHT22;7105;43.616;1.434;2023-02-23T15:53:07;6.80;99.90
14061;DHT22;7105;43.616;1.434;2023-02-23T15:55:40;6.80;99.90
14061;DHT22;7105;43.616;1.434;2023-02-23T15:58:36;6.70;99.90
14061;DHT22;7105;43.616;1.434;2023-02-23T16:01:10;6.60;99.90
14061;DHT22;7105;43.616;1.434;2023-02-23T16:04:00;6.80;99.90
14061;DHT22;7105;43.616;1.434;2023-02-23T16:06:35;6.90;99.90
14061;DHT22;7105;43.616;1.434;2023-02-23T16:09:14;6.70;99.90
14061;DHT22;7105;43.616;1.434;2023-02-23T16:11:50;6.80;99.90
14061;DHT22;7105;43.616;1.434;2023-02-23T16:14:18;7.10;99.90
14061;DHT22;7105;43.616;1.434;2023-02-23T16:16:48;6.90;99.90
14061;DHT22;7105;43.616;1.434;2023-02-23T16:19:16;6.70;99.90
14061;DHT22;7105;43.616;1.434;2023-02-23T16:21:47;6.70;99.90
14061;DHT22;7105;43.616;1.434;2023-02-23T16:24:18;6.80;99.90
14061;DHT22;7105;43.616;1.434;2023-02-23T16:26:53;7.10;99.90
14061;DHT22;7105;43.616;1.434;2023-02-23T16:29:29;6.90;99.90
14061;DHT22;7105;43.616;1.434;2023-02-23T16:31:58;6.80;99.90
14061;DHT22;7105;43.616;1.434;2023-02-23T16:34:33;6.90;99.90
14061;DHT22;7105;43.616;1.434;2023-02-23T16:37:03;7.00;99.90
14061;DHT22;7105;43.616;1.434;2023-02-23T16:39:31;7.00;99.90
14061;DHT22;7105;43.616;1.434;2023-02-23T16:41:59;6.80;99.90
14061;DHT22;7105;43.616;1.434;2023-02-23T16:44:26;6.60;99.90
14061;DHT22;7105;43.616;1.434;2023-02-23T16:49:18;6.90;99.90
14061;DHT22;7105;43.616;1.434;2023-02-23T16:51:44;7.20;99.90
14061;DHT22;7105;43.616;1.434;2023-02-23T16:54:09;6.90;99.90
14061;DHT22;7105;43.616;1.434;2023-02-23T16:56:37;6.90;99.90
14061;DHT22;7105;43.616;1.434;2023-02-23T16:59:04;6.80;99.90
14061;DHT22;7105;43.616;1.434;2023-02-23T17:01:34;6.90;99.90
14061;DHT22;7105;43.616;1.434;2023-02-23T17:04:00;7.20;99.90
14061;DHT22;7105;43.616;1.434;2023-02-23T17:06:26;7.00;99.90
14061;DHT22;7105;43.616;1.434;2023-02-23T17:08:52;6.80;99.90
14061;DHT22;7105;43.616;1.434;2023-02-23T17:11:17;6.80;99.90
14061;DHT22;7105;43.616;1.434;2023-02-23T17:13:43;6.80;99.90
14061;DHT22;7105;43.616;1.434;2023-02-23T17:16:11;6.60;99.90
14061;DHT22;7105;43.616;1.434;2023-02-23T17:18:38;6.70;99.90
14061;DHT22;7105;43.616;1.434;2023-02-23T17:21:06;6.60;99.90
14061;DHT22;7105;43.616;1.434;2023-02-23T17:23:34;6.60;99.90
14061;DHT22;7105;43.616;1.434;2023-02-23T17:26:08;6.50;99.90
14061;DHT22;7105;43.616;1.434;2023-02-23T17:28:34;6.70;99.90
14061;DHT22;7105;43.616;1.434;2023-02-23T17:31:00;6.80;99.90
14061;DHT22;7105;43.616;1.434;2023-02-23T17:33:28;6.90;99.90
14061;DHT22;7105;43.616;1.434;2023-02-23T17:35:58;6.60;99.90
14061;DHT22;7105;43.616;1.434;2023-02-23T17:38:25;6.50;99.90
14061;DHT22;7105;43.616;1.434;2023-02-23T17:41:05;6.50;99.90
14061;DHT22;7105;43.616;1.434;2023-02-23T17:43:31;6.60;99.90
14061;DHT22;7105;43.616;1.434;2023-02-23T17:45:56;6.70;99.90
14061;DHT22;7105;43.616;1.434;2023-02-23T17:48:23;6.70;99.90
14061;DHT22;7105;43.616;1.434;2023-02-23T17:51:06;6.50;99.90
14061;DHT22;7105;43.616;1.434;2023-02-23T17:53:33;6.40;99.90
14061;DHT22;7105;43.616;1.434;2023-02-23T17:55:59;6.40;99.90
14061;DHT22;7105;43.616;1.434;2023-02-23T17:58:25;6.30;99.90
14061;DHT22;7105;43.616;1.434;2023-02-23T18:00:59;6.40;99.90
14061;DHT22;7105;43.616;1.434;2023-02-23T18:03:26;6.70;99.90
14061;DHT22;7105;43.616;1.434;2023-02-23T18:06:04;6.70;99.90
14061;DHT22;7105;43.616;1.434;2023-02-23T18:08:30;6.40;99.90
14061;DHT22;7105;43.616;1.434;2023-02-23T18:10:56;6.30;99.90
14061;DHT22;7105;43.616;1.434;2023-02-23T18:13:22;6.50;99.90
14061;DHT22;7105;43.616;1.434;2023-02-23T18:15:53;6.50;99.90
14061;DHT22;7105;43.616;1.434;2023-02-23T18:18:20;6.40;99.90
14061;DHT22;7105;43.616;1.434;2023-02-23T18:20:57;6.40;99.90
14061;DHT22;7105;43.616;1.434;2023-02-23T18:23:24;6.40;99.90
14061;DHT22;7105;43.616;1.434;2023-02-23T18:25:50;6.50;99.90
14061;DHT22;7105;43.616;1.434;2023-02-23T18:28:16;6.80;99.90
14061;DHT22;7105;43.616;1.434;2023-02-23T18:30:42;6.50;99.90
14061;DHT22;7105;43.616;1.434;2023-02-23T18:33:09;6.40;99.90
14061;DHT22;7105;43.616;1.434;2023-02-23T18:35:41;6.40;99.90
14061;DHT22;7105;43.616;1.434;2023-02-23T18:38:10;6.50;99.90
14061;DHT22;7105;43.616;1.434;2023-02-23T18:40:36;6.60;99.90
14061;DHT22;7105;43.616;1.434;2023-02-23T18:43:03;6.80;99.90
14061;DHT22;7105;43.616;1.434;2023-02-23T18:45:29;6.60;99.90